Terminal Aerodrome Forecast
Issued by NWS

Home | Current Version | Previous Version | Graphics & Text | Print | Product List | Glossary On
Versions: 1 2 3 4 5 6 7 8 9 10 11 12 13 14 15 16 17 18 19 20 21
696
FTUS43 KABR 290127 AAB
TAFMBG
TAF AMD
KMBG 290127Z 2901/2924 01006KT P6SM -SHRA VCTS SCT040 BKN060CB
      OVC080
      TEMPO 2901/2902 3SM SHRA BKN040 OVC060
     FM290200 34005KT P6SM SCT250
     FM291700 30007KT P6SM SCT250=

USA.gov is the U.S. government's official web portal to all federal, state and local government web resources and services.